M I D A S
Marine Information and Data Acquisition System
Tripno 1075 of the Zeeleeuw from 2006-04-25 06:35:23 to 2006-04-25 15:41:12
Back to CruiseResearch ActivitiesStationsMapUnderway DataData graphs

EquipmentUnitsComments
TimeDGPSUTC
LatitudeDGPSDM.mWGS84
LongitudeDGPSDM.mWGS84
SpeedMeteo Stationm/sRelative wind speed
DirectionMeteo StationdegRelative wind direction
TemperatureMeteo Stationdeg CelciusAir temperature
PressureMeteo StationPaAtmospheric pressure
HumidityMeteo Station%Relative humidity
Missing or incorrect values are displayed as -999
Metereological data collected by the RV Zeeleeuw from 2006-04-25 06:35:04 to 2006-04-25 15:53:21
                                                                                    Next 1000 lines
Time Latitude Longitude Speed Direction Temperature Pressure Humidity
2006-04-25 06:35:16 51°13.601 2°56.096 -999 165 10.6 101580 95
2006-04-25 06:35:20 51°13.601 2°56.095 -999 171 10.6 101580 95
2006-04-25 06:35:26 51°13.602 2°56.092 -999 169 10.6 101580 94
2006-04-25 06:35:30 51°13.602 2°56.09 -999 154 10.6 101580 94
2006-04-25 06:35:36 51°13.604 2°56.085 -999 156 10.6 101580 94
2006-04-25 06:35:41 51°13.605 2°56.081 -999 148 10.6 101580 94
2006-04-25 06:35:46 51°13.606 2°56.076 -999 166 10.6 101580 94
2006-04-25 06:35:51 51°13.607 2°56.071 -999 155 10.6 101580 94
2006-04-25 06:35:56 51°13.609 2°56.064 -999 156 10.6 101580 94
2006-04-25 06:36:00 51°13.61 2°56.059 -999 156 10.6 101580 94
2006-04-25 06:36:06 51°13.612 2°56.05 -999 161 10.6 101580 94
2006-04-25 06:36:11 51°13.614 2°56.043 -999 160 10.6 101580 94
2006-04-25 06:36:16 51°13.616 2°56.034 -999 184 10.6 101580 94
2006-04-25 06:36:21 51°13.617 2°56.026 -999 176 10.6 101580 94
2006-04-25 06:36:26 51°13.619 2°56.017 -999 144 10.6 101580 94
2006-04-25 06:36:31 51°13.621 2°56.008 -999 144 10.7 101590 94
2006-04-25 06:36:36 51°13.623 2°55.998 -999 155 10.7 101590 94
2006-04-25 06:36:40 51°13.625 2°55.991 -999 179 10.7 101590 95
2006-04-25 06:36:46 51°13.627 2°55.98 -999 173 10.7 101590 95
2006-04-25 06:36:51 51°13.629 2°55.971 -999 155 10.7 101590 95
2006-04-25 06:36:56 51°13.632 2°55.961 -999 152 10.7 101590 94
2006-04-25 06:37:01 51°13.634 2°55.952 -999 164 10.7 101580 94
2006-04-25 06:37:06 51°13.636 2°55.942 -999 142 10.7 101580 94
2006-04-25 06:37:11 51°13.639 2°55.933 -999 161 10.7 101580 94
2006-04-25 06:37:16 51°13.642 2°55.923 -999 164 10.7 101580 94
2006-04-25 06:37:20 51°13.644 2°55.916 -999 143 10.7 101580 94
2006-04-25 06:37:26 51°13.648 2°55.904 -999 163 10.7 101580 94
2006-04-25 06:37:31 51°13.652 2°55.895 -999 159 10.7 101580 94
2006-04-25 06:37:36 51°13.655 2°55.885 -999 137 10.7 101580 94
2006-04-25 06:37:41 51°13.659 2°55.875 -999 145 10.7 101580 94
2006-04-25 06:37:46 51°13.663 2°55.866 -999 151 10.7 101580 94
2006-04-25 06:37:51 51°13.667 2°55.856 -999 170 10.7 101580 94
2006-04-25 06:37:56 51°13.671 2°55.846 -999 155 10.7 101580 94
2006-04-25 06:38:01 51°13.674 2°55.837 -999 158 10.7 101580 94
2006-04-25 06:38:06 51°13.678 2°55.828 -999 153 10.7 101580 94
2006-04-25 06:38:11 51°13.681 2°55.82 -999 150 10.7 101580 94
2006-04-25 06:38:16 51°13.685 2°55.812 -999 158 10.7 101580 94
2006-04-25 06:38:21 51°13.688 2°55.804 -999 150 10.7 101580 94
2006-04-25 06:38:26 51°13.69 2°55.797 -999 126 10.7 101580 94
2006-04-25 06:38:31 51°13.693 2°55.789 -999 190 10.7 101580 94
2006-04-25 06:38:36 51°13.696 2°55.782 -999 -999 10.7 101580 94
2006-04-25 06:38:41 51°13.698 2°55.776 -999 166 10.7 101580 94
2006-04-25 06:38:46 51°13.7 2°55.769 -999 183 10.7 101580 94
2006-04-25 06:38:51 51°13.702 2°55.763 -999 179 10.7 101580 94
2006-04-25 06:38:56 51°13.704 2°55.757 -999 179 10.8 101580 94
2006-04-25 06:39:01 51°13.705 2°55.752 -999 169 10.8 101580 94
2006-04-25 06:39:06 51°13.706 2°55.747 -999 172 10.8 101580 94
2006-04-25 06:39:10 51°13.707 2°55.743 -999 173 10.8 101580 94
2006-04-25 06:39:16 51°13.708 2°55.74 -999 166 10.8 101580 94
2006-04-25 06:39:20 51°13.708 2°55.738 -999 171 10.8 101580 94
2006-04-25 06:39:26 51°13.709 2°55.739 -999 169 10.8 101580 94
2006-04-25 06:39:31 51°13.709 2°55.74 -999 194 10.8 101590 93
2006-04-25 06:39:35 51°13.71 2°55.742 -999 198 10.8 101590 93
2006-04-25 06:39:40 51°13.711 2°55.746 -999 201 10.8 101590 93
2006-04-25 06:39:46 51°13.713 2°55.75 -999 250 10.8 101590 93
2006-04-25 06:39:50 51°13.714 2°55.752 -999 237 10.8 101590 93
2006-04-25 06:39:55 51°13.715 2°55.755 -999 183 10.8 101590 93
2006-04-25 06:40:00 51°13.717 2°55.758 -999 210 10.8 101590 93
2006-04-25 06:40:06 51°13.718 2°55.76 -999 255 10.8 101590 93
2006-04-25 06:40:10 51°13.719 2°55.76 -999 236 10.8 101590 93
2006-04-25 06:40:15 51°13.719 2°55.761 -999 245 10.8 101590 93
2006-04-25 06:40:20 51°13.719 2°55.761 -999 232 10.8 101590 94
2006-04-25 06:40:26 51°13.718 2°55.761 -999 214 10.8 101590 94
2006-04-25 06:40:30 51°13.718 2°55.761 -999 215 10.8 101600 94
2006-04-25 06:40:36 51°13.716 2°55.759 -999 220 10.8 101600 94
2006-04-25 06:40:40 51°13.715 2°55.758 -999 212 10.9 101590 94
2006-04-25 06:40:46 51°13.713 2°55.756 -999 233 10.9 101590 94
2006-04-25 06:40:51 51°13.71 2°55.754 -999 219 10.8 101600 93
2006-04-25 06:40:56 51°13.707 2°55.751 -999 226 10.8 101600 93
2006-04-25 06:41:01 51°13.704 2°55.749 -999 224 10.9 101600 93
2006-04-25 06:41:06 51°13.702 2°55.747 -999 216 10.9 101600 93
2006-04-25 06:41:11 51°13.699 2°55.745 -999 226 10.9 101600 93
2006-04-25 06:41:16 51°13.697 2°55.743 -999 258 10.9 101600 93
2006-04-25 06:41:21 51°13.695 2°55.742 -999 240 10.8 101600 93
2006-04-25 06:41:26 51°13.694 2°55.742 -999 258 10.8 101600 93
2006-04-25 06:41:31 51°13.694 2°55.741 -999 262 10.8 101610 93
2006-04-25 06:41:36 51°13.695 2°55.741 -999 276 10.8 101610 93
2006-04-25 06:41:40 51°13.696 2°55.741 -999 270 10.8 101610 93
2006-04-25 06:41:46 51°13.698 2°55.741 -999 272 10.8 101610 93
2006-04-25 06:41:51 51°13.7 2°55.74 -999 288 10.8 101600 93
2006-04-25 06:41:56 51°13.703 2°55.739 -999 304 10.8 101600 93
2006-04-25 06:42:01 51°13.706 2°55.738 -999 275 10.8 101610 93
2006-04-25 06:42:06 51°13.71 2°55.736 -999 294 10.8 101610 93
2006-04-25 06:42:11 51°13.714 2°55.733 -999 278 10.8 101610 93
2006-04-25 06:42:16 51°13.718 2°55.729 -999 300 10.8 101600 93
2006-04-25 06:42:20 51°13.722 2°55.726 -999 336 10.8 101600 93
2006-04-25 06:42:26 51°13.728 2°55.721 -999 313 10.8 101600 93
2006-04-25 06:42:31 51°13.733 2°55.716 -999 332 10.8 101600 93
2006-04-25 06:42:36 51°13.739 2°55.711 -999 295 10.8 101600 93
2006-04-25 06:42:40 51°13.744 2°55.707 -999 227 10.9 101600 93
2006-04-25 06:42:46 51°13.752 2°55.701 -999 233 10.9 101600 93
2006-04-25 06:42:51 51°13.758 2°55.696 -999 307 10.9 101600 93
2006-04-25 06:42:56 51°13.765 2°55.691 -999 281 10.9 101600 93
2006-04-25 06:43:00 51°13.771 2°55.686 -999 290 10.9 101590 93
2006-04-25 06:43:04 51°13.776 2°55.682 -999 305 10.9 101590 93
2006-04-25 06:43:10 51°13.785 2°55.674 -999 291 10.9 101590 93
2006-04-25 06:43:16 51°13.794 2°55.667 -999 266 10.9 101590 93
2006-04-25 06:43:20 51°13.8 2°55.662 -999 335 10.9 101600 93
2006-04-25 06:43:26 51°13.809 2°55.655 -999 314 10.9 101600 93
2006-04-25 06:43:30 51°13.815 2°55.65 -999 296 10.9 101600 92
2006-04-25 06:43:35 51°13.823 2°55.643 -999 325 10.9 101600 92
2006-04-25 06:43:41 51°13.832 2°55.636 -999 30 10.9 101590 92
2006-04-25 06:43:44 51°13.837 2°55.632 -999 356 10.9 101590 92
2006-04-25 06:43:51 51°13.848 2°55.624 -999 25 10.9 101590 92
2006-04-25 06:43:56 51°13.857 2°55.618 -999 2 10.9 101590 92
2006-04-25 06:44:00 51°13.863 2°55.613 -999 2 10.9 101590 92
2006-04-25 06:44:06 51°13.873 2°55.605 -999 331 10.9 101590 92
2006-04-25 06:44:11 51°13.882 2°55.599 -999 313 10.9 101580 92
2006-04-25 06:44:16 51°13.89 2°55.592 -999 320 10.9 101580 92
2006-04-25 06:44:21 51°13.899 2°55.586 -999 346 10.9 101580 92
2006-04-25 06:44:26 51°13.907 2°55.58 -999 326 10.9 101580 92
2006-04-25 06:44:31 51°13.916 2°55.573 -999 330 10.9 101590 92
2006-04-25 06:44:36 51°13.925 2°55.567 -999 325 10.9 101590 92
2006-04-25 06:44:40 51°13.931 2°55.562 -999 41 10.9 101580 92
2006-04-25 06:44:46 51°13.942 2°55.554 -999 346 10.9 101580 92
2006-04-25 06:44:50 51°13.949 2°55.549 -999 324 10.9 101580 92
2006-04-25 06:44:56 51°13.96 2°55.542 -999 308 10.9 101580 92
2006-04-25 06:45:01 51°13.969 2°55.536 -999 339 10.8 101580 92
2006-04-25 06:45:06 51°13.978 2°55.529 -999 317 10.8 101580 92
2006-04-25 06:45:11 51°13.987 2°55.523 -999 29 10.8 101580 92
2006-04-25 06:45:16 51°13.996 2°55.517 -999 320 10.8 101580 92
2006-04-25 06:45:21 51°14.005 2°55.511 -999 339 10.8 101590 92
2006-04-25 06:45:26 51°14.014 2°55.504 -999 315 10.8 101590 92
2006-04-25 06:45:31 51°14.024 2°55.497 -999 317 10.8 101590 92
2006-04-25 06:45:36 51°14.033 2°55.491 -999 321 10.8 101580 92
2006-04-25 06:45:41 51°14.042 2°55.484 -999 235 10.8 101580 92
2006-04-25 06:45:44 51°14.048 2°55.48 -999 321 10.8 101580 92
2006-04-25 06:45:51 51°14.061 2°55.471 -999 340 10.8 101580 92
2006-04-25 06:45:54 51°14.067 2°55.467 -999 305 10.8 101580 92
2006-04-25 06:46:00 51°14.079 2°55.459 -999 315 10.8 101580 92
2006-04-25 06:46:05 51°14.088 2°55.452 -999 327 10.8 101580 92
2006-04-25 06:46:10 51°14.098 2°55.446 -999 333 10.8 101590 92
2006-04-25 06:46:16 51°14.109 2°55.437 -999 337 10.8 101590 92
2006-04-25 06:46:21 51°14.119 2°55.43 -999 335 10.8 101580 92
2006-04-25 06:46:26 51°14.128 2°55.424 -999 230 10.8 101580 92
2006-04-25 06:46:30 51°14.136 2°55.418 -999 322 10.8 101580 92
2006-04-25 06:46:36 51°14.147 2°55.41 -999 313 10.8 101580 92
2006-04-25 06:46:40 51°14.155 2°55.403 -999 316 10.8 101570 92
2006-04-25 06:46:46 51°14.166 2°55.394 -999 42 10.8 101570 92
2006-04-25 06:46:51 51°14.175 2°55.385 -999 319 10.8 101580 92
2006-04-25 06:46:56 51°14.183 2°55.377 -999 315 10.8 101580 92
2006-04-25 06:47:01 51°14.192 2°55.367 -999 322 10.7 101600 92
2006-04-25 06:47:06 51°14.2 2°55.357 -999 323 10.7 101600 92
2006-04-25 06:47:11 51°14.208 2°55.347 -999 315 10.7 101590 92
2006-04-25 06:47:16 51°14.216 2°55.336 -999 326 10.7 101590 92
2006-04-25 06:47:21 51°14.224 2°55.326 -999 320 10.7 101580 93
2006-04-25 06:47:26 51°14.232 2°55.314 -999 322 10.7 101580 93
2006-04-25 06:47:31 51°14.24 2°55.303 -999 323 10.7 101580 93
2006-04-25 06:47:36 51°14.247 2°55.292 -999 337 10.7 101580 93
2006-04-25 06:47:40 51°14.253 2°55.282 -999 329 10.7 101570 93
2006-04-25 06:47:46 51°14.262 2°55.266 -999 335 10.7 101570 93
2006-04-25 06:47:51 51°14.27 2°55.253 -999 331 10.7 101570 93
2006-04-25 06:47:56 51°14.277 2°55.239 -999 331 10.6 101580 93
2006-04-25 06:48:01 51°14.285 2°55.226 -999 332 10.6 101580 93
2006-04-25 06:48:06 51°14.293 2°55.212 -999 332 10.6 101580 93
2006-04-25 06:48:11 51°14.301 2°55.197 -999 326 10.6 101570 93
2006-04-25 06:48:16 51°14.309 2°55.183 -999 332 10.6 101570 93
2006-04-25 06:48:20 51°14.315 2°55.172 -999 331 10.6 101580 93
2006-04-25 06:48:26 51°14.325 2°55.154 -999 330 10.6 101580 93
2006-04-25 06:48:31 51°14.333 2°55.139 -999 339 10.5 101560 93
2006-04-25 06:48:36 51°14.341 2°55.124 -999 332 10.5 101560 93
2006-04-25 06:48:41 51°14.349 2°55.11 -999 329 10.5 101570 93
2006-04-25 06:48:46 51°14.357 2°55.095 -999 322 10.5 101570 93
2006-04-25 06:48:50 51°14.364 2°55.083 -999 324 10.4 101570 93
2006-04-25 06:48:55 51°14.372 2°55.068 -999 320 10.4 101570 93
2006-04-25 06:49:00 51°14.381 2°55.054 -999 324 10.3 101570 93
2006-04-25 06:49:06 51°14.391 2°55.036 -999 321 10.3 101570 93
2006-04-25 06:49:10 51°14.398 2°55.023 -999 327 10.3 101550 93
2006-04-25 06:49:16 51°14.409 2°55.005 -999 324 10.3 101550 93
2006-04-25 06:49:20 51°14.415 2°54.992 -999 321 10.2 101560 93
2006-04-25 06:49:25 51°14.424 2°54.976 -999 324 10.2 101560 93
2006-04-25 06:49:30 51°14.433 2°54.959 -999 324 10.2 101560 93
2006-04-25 06:49:35 51°14.441 2°54.942 -999 327 10.2 101560 93
2006-04-25 06:49:40 51°14.45 2°54.924 -999 330 10.1 101560 93
2006-04-25 06:49:45 51°14.457 2°54.905 -999 331 10.1 101560 93
2006-04-25 06:49:51 51°14.466 2°54.882 -999 333 10.1 101560 93
2006-04-25 06:49:56 51°14.472 2°54.861 -999 336 10.1 101560 93
2006-04-25 06:50:00 51°14.476 2°54.845 -999 340 10 101560 93
2006-04-25 06:50:06 51°14.482 2°54.819 -999 340 10 101560 93
2006-04-25 06:50:10 51°14.486 2°54.802 -999 340 10 101560 93
2006-04-25 06:50:16 51°14.491 2°54.775 -999 342 10 101560 93
2006-04-25 06:50:20 51°14.494 2°54.757 -999 348 9.9 101550 94
2006-04-25 06:50:26 51°14.497 2°54.729 -999 347 9.9 101550 94
2006-04-25 06:50:30 51°14.499 2°54.709 -999 349 9.9 101560 94
2006-04-25 06:50:35 51°14.5 2°54.684 -999 353 9.9 101560 94
2006-04-25 06:50:40 51°14.5 2°54.659 -999 352 9.8 101550 94
2006-04-25 06:50:46 51°14.499 2°54.628 -999 358 9.8 101550 94
2006-04-25 06:50:50 51°14.497 2°54.608 -999 359 9.8 101550 94
2006-04-25 06:50:56 51°14.494 2°54.577 -999 2 9.8 101550 94
2006-04-25 06:51:00 51°14.49 2°54.556 -999 4 9.8 101550 94
2006-04-25 06:51:05 51°14.484 2°54.531 -999 7 9.8 101550 94
2006-04-25 06:51:10 51°14.476 2°54.506 -999 6 9.7 101550 95
2006-04-25 06:51:15 51°14.468 2°54.481 -999 8 9.7 101550 95
2006-04-25 06:51:20 51°14.46 2°54.455 -999 10 9.7 101560 95
2006-04-25 06:51:24 51°14.453 2°54.435 -999 12 9.7 101560 95
2006-04-25 06:51:30 51°14.442 2°54.404 -999 8 9.7 101570 95
2006-04-25 06:51:36 51°14.431 2°54.375 -999 -999 9.7 101570 95
2006-04-25 06:51:40 51°14.423 2°54.354 -999 12 9.7 101570 95
2006-04-25 06:51:45 51°14.414 2°54.329 -999 13 9.6 101560 95
2006-04-25 06:51:50 51°14.404 2°54.304 -999 11 9.6 101550 95
2006-04-25 06:51:56 51°14.392 2°54.275 -999 8 9.6 101550 95
2006-04-25 06:52:00 51°14.384 2°54.254 -999 8 9.5 101560 95
2006-04-25 06:52:05 51°14.375 2°54.229 -999 7 9.5 101560 95
2006-04-25 06:52:10 51°14.365 2°54.203 -999 8 9.5 101560 95
2006-04-25 06:52:16 51°14.354 2°54.172 -999 7 9.4 101560 95
2006-04-25 06:52:20 51°14.347 2°54.152 -999 8 9.4 101560 95
2006-04-25 06:52:25 51°14.338 2°54.126 -999 9 9.4 101560 95
2006-04-25 06:52:30 51°14.329 2°54.099 -999 12 9.4 101560 95
2006-04-25 06:52:36 51°14.318 2°54.068 -999 9 9.4 101570 95
2006-04-25 06:52:40 51°14.31 2°54.047 -999 10 9.3 101560 95
2006-04-25 06:52:45 51°14.301 2°54.021 -999 13 9.3 101560 95
2006-04-25 06:52:50 51°14.292 2°53.995 -999 12 9.3 101560 96
2006-04-25 06:52:55 51°14.283 2°53.969 -999 10 9.3 101560 96
2006-04-25 06:53:00 51°14.274 2°53.943 -999 12 9.3 101560 96
2006-04-25 06:53:06 51°14.262 2°53.911 -999 11 9.3 101560 96
2006-04-25 06:53:10 51°14.255 2°53.891 -999 10 9.2 101560 96
2006-04-25 06:53:15 51°14.245 2°53.865 -999 14 9.2 101560 96
2006-04-25 06:53:20 51°14.235 2°53.839 -999 14 9.2 101560 96
2006-04-25 06:53:26 51°14.224 2°53.808 -999 14 9.2 101560 96
2006-04-25 06:53:30 51°14.216 2°53.787 -999 13 9.1 101560 96
2006-04-25 06:53:36 51°14.204 2°53.756 -999 11 9.1 101560 96
2006-04-25 06:53:40 51°14.196 2°53.735 -999 11 9.2 101560 96
2006-04-25 06:53:46 51°14.185 2°53.704 -999 8 9.2 101560 96
2006-04-25 06:53:50 51°14.178 2°53.683 -999 8 9.1 101560 97
2006-04-25 06:53:56 51°14.167 2°53.651 -999 10 9.1 101560 97
2006-04-25 06:54:00 51°14.16 2°53.63 -999 10 9.1 101560 97
2006-04-25 06:54:05 51°14.151 2°53.604 -999 10 9.1 101560 97
2006-04-25 06:54:10 51°14.141 2°53.577 -999 10 9.1 101570 97
2006-04-25 06:54:16 51°14.13 2°53.545 -999 11 9.1 101570 97
2006-04-25 06:54:20 51°14.123 2°53.524 -999 12 9.1 101570 97
2006-04-25 06:54:25 51°14.113 2°53.498 -999 14 9.1 101570 97
2006-04-25 06:54:30 51°14.103 2°53.472 -999 15 9.1 101570 97
2006-04-25 06:54:36 51°14.091 2°53.441 -999 -999 9.1 101570 97
2006-04-25 06:54:40 51°14.083 2°53.42 -999 15 9 101570 97
2006-04-25 06:54:45 51°14.073 2°53.394 -999 16 9 101570 97
2006-04-25 06:54:50 51°14.063 2°53.369 -999 13 9 101570 97
2006-04-25 06:54:56 51°14.05 2°53.338 -999 15 9 101570 97
2006-04-25 06:55:00 51°14.042 2°53.318 -999 10 9 101570 97
2006-04-25 06:55:05 51°14.031 2°53.294 -999 15 9 101570 97
2006-04-25 06:55:10 51°14.019 2°53.269 -999 16 9 101570 97
2006-04-25 06:55:15 51°14.008 2°53.245 -999 15 9 101570 97
2006-04-25 06:55:20 51°13.997 2°53.22 -999 15 9 101580 97
2006-04-25 06:55:26 51°13.983 2°53.191 -999 14 9 101580 97
2006-04-25 06:55:30 51°13.975 2°53.171 -999 12 9 101570 98
2006-04-25 06:55:35 51°13.965 2°53.145 -999 9 9 101570 98
2006-04-25 06:55:40 51°13.955 2°53.119 -999 13 9 101570 98
2006-04-25 06:55:46 51°13.945 2°53.086 -999 10 9 101570 98
2006-04-25 06:55:50 51°13.938 2°53.064 -999 11 9 101580 98
2006-04-25 06:55:56 51°13.929 2°53.031 -999 11 9 101580 98
2006-04-25 06:56:00 51°13.922 2°53.009 -999 7 9 101580 98
2006-04-25 06:56:06 51°13.913 2°52.976 -999 11 9 101580 98
2006-04-25 06:56:10 51°13.908 2°52.953 -999 9 9 101580 98
2006-04-25 06:56:16 51°13.899 2°52.92 -999 9 9 101580 98
2006-04-25 06:56:20 51°13.893 2°52.898 -999 9 9 101590 98
2006-04-25 06:56:24 51°13.887 2°52.875 -999 9 9 101590 98
2006-04-25 06:56:31 51°13.875 2°52.837 -999 10 8.9 101590 98
2006-04-25 06:56:36 51°13.867 2°52.81 -999 9 8.9 101590 98
2006-04-25 06:56:40 51°13.861 2°52.788 -999 12 8.9 101580 98
2006-04-25 06:56:44 51°13.854 2°52.766 -999 11 8.9 101580 98
2006-04-25 06:56:50 51°13.844 2°52.733 -999 8 8.9 101580 98
2006-04-25 06:56:56 51°13.833 2°52.701 -999 10 8.9 101580 98
2006-04-25 06:57:00 51°13.827 2°52.679 -999 11 8.9 101590 98
2006-04-25 06:57:06 51°13.817 2°52.646 -999 11 8.9 101590 98
2006-04-25 06:57:10 51°13.81 2°52.624 -999 11 8.9 101580 98
2006-04-25 06:57:15 51°13.802 2°52.596 -999 11 8.9 101580 98
2006-04-25 06:57:20 51°13.794 2°52.569 -999 14 8.9 101590 98
2006-04-25 06:57:26 51°13.783 2°52.537 -999 17 8.9 101590 98
2006-04-25 06:57:30 51°13.776 2°52.515 -999 15 8.9 101570 98
2006-04-25 06:57:35 51°13.766 2°52.489 -999 16 8.9 101570 98
2006-04-25 06:57:40 51°13.757 2°52.463 -999 17 8.8 101580 98
2006-04-25 06:57:46 51°13.745 2°52.431 -999 14 8.8 101580 98
2006-04-25 06:57:50 51°13.737 2°52.411 -999 18 8.8 101580 98
2006-04-25 06:57:56 51°13.725 2°52.38 -999 18 8.8 101580 98
2006-04-25 06:58:00 51°13.717 2°52.359 -999 16 8.8 101580 98
2006-04-25 06:58:06 51°13.705 2°52.328 -999 13 8.8 101580 98
2006-04-25 06:58:10 51°13.697 2°52.308 -999 12 8.8 101590 98
2006-04-25 06:58:15 51°13.688 2°52.281 -999 8 8.8 101590 98
2006-04-25 06:58:20 51°13.678 2°52.255 -999 15 8.8 101570 99
2006-04-25 06:58:26 51°13.668 2°52.223 -999 11 8.8 101570 99
2006-04-25 06:58:31 51°13.659 2°52.196 -999 11 8.8 101580 99
2006-04-25 06:58:36 51°13.65 2°52.17 -999 13 8.8 101580 99
2006-04-25 06:58:40 51°13.643 2°52.149 -999 13 8.8 101570 99
2006-04-25 06:58:46 51°13.633 2°52.117 -999 15 8.8 101570 99
2006-04-25 06:58:50 51°13.626 2°52.096 -999 10 8.8 101580 99
2006-04-25 06:58:56 51°13.616 2°52.064 -999 10 8.8 101580 99
2006-04-25 06:59:00 51°13.609 2°52.043 -999 12 8.8 101580 99
2006-04-25 06:59:04 51°13.602 2°52.021 -999 11 8.8 101580 99
2006-04-25 06:59:10 51°13.591 2°51.99 -999 12 8.8 101590 99
2006-04-25 06:59:15 51°13.583 2°51.963 -999 12 8.8 101590 99
2006-04-25 06:59:20 51°13.574 2°51.937 -999 9 8.8 101580 99
2006-04-25 06:59:24 51°13.567 2°51.916 -999 11 8.8 101580 99
2006-04-25 06:59:30 51°13.556 2°51.885 -999 11 8.8 101580 99
2006-04-25 06:59:35 51°13.548 2°51.858 -999 13 8.8 101580 99
2006-04-25 06:59:40 51°13.539 2°51.832 -999 7 8.8 101580 99
2006-04-25 06:59:46 51°13.528 2°51.8 -999 9 8.8 101580 99
2006-04-25 06:59:50 51°13.521 2°51.779 -999 8 8.8 101580 99
2006-04-25 06:59:56 51°13.511 2°51.747 -999 10 8.8 101580 99
2006-04-25 07:00:00 51°13.503 2°51.726 -999 9 8.8 101580 99
2006-04-25 07:00:04 51°13.496 2°51.704 -999 10 8.8 101580 99
2006-04-25 07:00:10 51°13.486 2°51.672 -999 13 8.8 101580 99
2006-04-25 07:00:15 51°13.477 2°51.646 -999 11 8.8 101580 99
2006-04-25 07:00:20 51°13.468 2°51.62 -999 12 8.8 101580 99
2006-04-25 07:00:26 51°13.457 2°51.588 -999 12 8.8 101580 99
2006-04-25 07:00:30 51°13.45 2°51.567 -999 13 8.8 101580 99
2006-04-25 07:00:35 51°13.44 2°51.541 -999 13 8.8 101580 99
2006-04-25 07:00:40 51°13.43 2°51.516 -999 14 8.8 101570 99
2006-04-25 07:00:46 51°13.419 2°51.485 -999 17 8.8 101570 99
2006-04-25 07:00:51 51°13.409 2°51.46 -999 13 8.8 101590 99
2006-04-25 07:00:55 51°13.401 2°51.44 -999 15 8.8 101590 99
2006-04-25 07:01:00 51°13.391 2°51.415 -999 16 8.8 101580 99
2006-04-25 07:01:04 51°13.383 2°51.395 -999 18 8.8 101580 99
2006-04-25 07:01:10 51°13.371 2°51.364 -999 16 8.8 101580 99
2006-04-25 07:01:16 51°13.36 2°51.333 -999 14 8.8 101580 99
2006-04-25 07:01:20 51°13.352 2°51.312 -999 16 8.8 101580 99
2006-04-25 07:01:26 51°13.342 2°51.281 -999 14 8.8 101580 99
2006-04-25 07:01:30 51°13.334 2°51.26 -999 19 8.8 101570 99
2006-04-25 07:01:36 51°13.324 2°51.229 -999 18 8.8 101570 99
2006-04-25 07:01:40 51°13.317 2°51.208 -999 16 8.8 101580 99
2006-04-25 07:01:46 51°13.306 2°51.177 -999 17 8.8 101580 99
2006-04-25 07:01:50 51°13.299 2°51.156 -999 19 8.8 101570 100
2006-04-25 07:01:56 51°13.288 2°51.124 -999 18 8.8 101570 100
2006-04-25 07:02:00 51°13.281 2°51.103 -999 16 8.8 101570 100
2006-04-25 07:02:06 51°13.27 2°51.072 -999 19 8.8 101570 100
2006-04-25 07:02:10 51°13.263 2°51.051 -999 20 8.8 101580 100
2006-04-25 07:02:15 51°13.254 2°51.025 -999 19 8.8 101580 100
2006-04-25 07:02:20 51°13.245 2°50.998 -999 16 8.8 101570 100
2006-04-25 07:02:24 51°13.238 2°50.978 -999 20 8.8 101570 100
2006-04-25 07:02:30 51°13.227 2°50.946 -999 17 8.8 101580 100
2006-04-25 07:02:35 51°13.218 2°50.92 -999 18 8.8 101580 100
2006-04-25 07:02:40 51°13.209 2°50.894 -999 19 8.8 101570 100
2006-04-25 07:02:43 51°13.204 2°50.878 -999 21 8.8 101570 100
2006-04-25 07:02:50 51°13.191 2°50.842 -999 18 8.8 101570 100
2006-04-25 07:02:55 51°13.182 2°50.817 -999 15 8.8 101570 100
2006-04-25 07:03:00 51°13.172 2°50.791 -999 19 8.8 101570 100
2006-04-25 07:03:04 51°13.164 2°50.771 -999 19 8.8 101570 100
2006-04-25 07:03:10 51°13.152 2°50.741 -999 21 8.8 101570 100
2006-04-25 07:03:16 51°13.14 2°50.711 -999 22 8.8 101570 100
2006-04-25 07:03:20 51°13.131 2°50.691 -999 17 8.8 101570 100
2006-04-25 07:03:26 51°13.119 2°50.661 -999 17 8.8 101570 100
2006-04-25 07:03:30 51°13.111 2°50.641 -999 18 8.8 101570 100
2006-04-25 07:03:36 51°13.1 2°50.61 -999 17 8.8 101570 100
2006-04-25 07:03:40 51°13.093 2°50.59 -999 13 8.8 101570 100
2006-04-25 07:03:46 51°13.082 2°50.558 -999 18 8.8 101570 100
2006-04-25 07:03:50 51°13.074 2°50.538 -999 16 8.8 101580 100
2006-04-25 07:03:56 51°13.063 2°50.507 -999 14 8.8 101580 100
2006-04-25 07:04:00 51°13.056 2°50.486 -999 11 8.8 101570 100
2006-04-25 07:04:06 51°13.045 2°50.454 -999 14 8.8 101570 100
2006-04-25 07:04:10 51°13.038 2°50.433 -999 12 8.8 101590 100
2006-04-25 07:04:16 51°13.027 2°50.402 -999 11 8.8 101590 100
2006-04-25 07:04:20 51°13.02 2°50.381 -999 12 8.9 101580 100
2006-04-25 07:04:24 51°13.013 2°50.36 -999 13 8.9 101580 100
2006-04-25 07:04:30 51°13.002 2°50.328 -999 16 8.9 101580 100
2006-04-25 07:04:35 51°12.993 2°50.302 -999 14 8.9 101580 100
2006-04-25 07:04:40 51°12.984 2°50.276 -999 16 8.9 101580 100
2006-04-25 07:04:43 51°12.979 2°50.26 -999 16 8.9 101580 100
2006-04-25 07:04:50 51°12.966 2°50.224 -999 16 8.9 101570 100
2006-04-25 07:04:55 51°12.957 2°50.198 -999 12 8.9 101570 100
2006-04-25 07:05:00 51°12.947 2°50.172 -999 13 8.9 101570 100
2006-04-25 07:05:04 51°12.94 2°50.151 -999 13 8.9 101570 100
2006-04-25 07:05:10 51°12.929 2°50.12 -999 18 8.9 101580 100
2006-04-25 07:05:16 51°12.918 2°50.089 -999 16 8.9 101580 100
2006-04-25 07:05:20 51°12.911 2°50.068 -999 15 8.9 101580 100
2006-04-25 07:05:26 51°12.9 2°50.036 -999 18 8.9 101580 100
2006-04-25 07:05:30 51°12.893 2°50.015 -999 18 8.9 101570 100
2006-04-25 07:05:36 51°12.882 2°49.984 -999 16 8.9 101570 100
2006-04-25 07:05:40 51°12.875 2°49.962 -999 16 8.9 101570 100
2006-04-25 07:05:44 51°12.868 2°49.941 -999 18 8.9 101570 100
2006-04-25 07:05:51 51°12.855 2°49.905 -999 19 8.9 101580 100
2006-04-25 07:05:56 51°12.846 2°49.878 -999 18 8.9 101580 100
2006-04-25 07:06:00 51°12.839 2°49.857 -999 17 9 101580 100
2006-04-25 07:06:06 51°12.828 2°49.826 -999 16 9 101580 100
2006-04-25 07:06:10 51°12.821 2°49.805 -999 15 9 101570 100
2006-04-25 07:06:16 51°12.811 2°49.773 -999 17 9 101570 100
2006-04-25 07:06:20 51°12.804 2°49.752 -999 15 9 101580 100
2006-04-25 07:06:25 51°12.795 2°49.726 -999 12 9 101580 100
2006-04-25 07:06:30 51°12.786 2°49.7 -999 7 9 101580 100
2006-04-25 07:06:36 51°12.775 2°49.668 -999 14 9 101580 100
2006-04-25 07:06:40 51°12.767 2°49.648 -999 12 9 101580 100
2006-04-25 07:06:46 51°12.756 2°49.617 -999 12 9 101580 100
2006-04-25 07:06:50 51°12.749 2°49.596 -999 15 9 101580 100
2006-04-25 07:06:56 51°12.738 2°49.565 -999 14 9 101580 100
2006-04-25 07:07:00 51°12.731 2°49.544 -999 14 9 101580 100
2006-04-25 07:07:06 51°12.72 2°49.512 -999 16 9 101580 100
2006-04-25 07:07:10 51°12.713 2°49.492 -999 13 9 101580 100
2006-04-25 07:07:15 51°12.704 2°49.466 -999 11 9 101580 100
2006-04-25 07:07:20 51°12.695 2°49.44 -999 13 9 101580 100
2006-04-25 07:07:26 51°12.684 2°49.409 -999 13 9 101580 100
2006-04-25 07:07:30 51°12.677 2°49.388 -999 14 9 101570 100
2006-04-25 07:07:35 51°12.668 2°49.362 -999 13 9 101570 100
2006-04-25 07:07:40 51°12.659 2°49.336 -999 14 9 101580 100
2006-04-25 07:07:45 51°12.65 2°49.31 -999 12 9 101580 100
2006-04-25 07:07:50 51°12.642 2°49.283 -999 13 9 101580 100
2006-04-25 07:07:56 51°12.631 2°49.252 -999 15 9 101580 100
2006-04-25 07:08:00 51°12.624 2°49.232 -999 14 9 101580 100
2006-04-25 07:08:04 51°12.617 2°49.211 -999 14 9 101580 100
2006-04-25 07:08:10 51°12.606 2°49.179 -999 15 9 101570 100
2006-04-25 07:08:16 51°12.595 2°49.148 -999 14 9 101570 100
2006-04-25 07:08:20 51°12.588 2°49.127 -999 14 9 101570 100
2006-04-25 07:08:26 51°12.576 2°49.096 -999 15 9 101570 100
2006-04-25 07:08:30 51°12.569 2°49.075 -999 12 8.9 101570 100
2006-04-25 07:08:36 51°12.558 2°49.045 -999 14 8.9 101570 100
2006-04-25 07:08:40 51°12.551 2°49.024 -999 13 8.9 101570 100
2006-04-25 07:08:44 51°12.543 2°49.003 -999 11 8.9 101570 100
2006-04-25 07:08:50 51°12.532 2°48.972 -999 9 8.9 101570 100
2006-04-25 07:08:55 51°12.523 2°48.946 -999 11 8.9 101570 100
2006-04-25 07:09:00 51°12.514 2°48.92 -999 11 8.9 101570 100
2006-04-25 07:09:04 51°12.507 2°48.899 -999 13 8.9 101570 100
2006-04-25 07:09:10 51°12.497 2°48.868 -999 15 8.9 101570 100
2006-04-25 07:09:15 51°12.488 2°48.842 -999 16 8.9 101570 100
2006-04-25 07:09:20 51°12.479 2°48.816 -999 17 8.9 101580 100
2006-04-25 07:09:26 51°12.468 2°48.785 -999 15 8.9 101580 100
2006-04-25 07:09:31 51°12.459 2°48.759 -999 13 8.9 101570 100
2006-04-25 07:09:35 51°12.452 2°48.738 -999 9 8.9 101570 100
2006-04-25 07:09:40 51°12.443 2°48.713 -999 14 8.9 101570 100
2006-04-25 07:09:46 51°12.432 2°48.681 -999 13 8.9 101570 100
2006-04-25 07:09:50 51°12.425 2°48.66 -999 15 8.9 101570 100
2006-04-25 07:09:56 51°12.414 2°48.63 -999 12 8.9 101570 100
2006-04-25 07:10:00 51°12.407 2°48.609 -999 14 8.9 101580 100
2006-04-25 07:10:05 51°12.398 2°48.583 -999 14 8.9 101580 100
2006-04-25 07:10:10 51°12.389 2°48.558 -999 10 8.9 101580 100
2006-04-25 07:10:16 51°12.378 2°48.527 -999 14 8.9 101580 100
2006-04-25 07:10:20 51°12.371 2°48.506 -999 15 8.9 101570 100
2006-04-25 07:10:25 51°12.362 2°48.48 -999 13 8.9 101570 100
2006-04-25 07:10:30 51°12.353 2°48.454 -999 14 8.9 101570 100
2006-04-25 07:10:36 51°12.342 2°48.423 -999 15 8.9 101570 100
2006-04-25 07:10:40 51°12.335 2°48.403 -999 16 8.8 101570 100
2006-04-25 07:10:46 51°12.324 2°48.372 -999 16 8.8 101570 100
2006-04-25 07:10:50 51°12.317 2°48.351 -999 17 8.8 101580 100
2006-04-25 07:10:56 51°12.306 2°48.321 -999 16 8.8 101580 100
2006-04-25 07:11:00 51°12.299 2°48.3 -999 17 8.8 101570 100
2006-04-25 07:11:04 51°12.291 2°48.279 -999 15 8.8 101570 100
2006-04-25 07:11:10 51°12.281 2°48.249 -999 15 8.8 101580 100
2006-04-25 07:11:15 51°12.272 2°48.223 -999 17 8.8 101580 100
2006-04-25 07:11:20 51°12.263 2°48.197 -999 16 8.8 101570 100
2006-04-25 07:11:26 51°12.252 2°48.167 -999 20 8.8 101570 100
2006-04-25 07:11:30 51°12.245 2°48.146 -999 19 8.8 101570 100
2006-04-25 07:11:35 51°12.236 2°48.12 -999 19 8.8 101570 100
2006-04-25 07:11:40 51°12.227 2°48.094 -999 19 8.8 101570 100
2006-04-25 07:11:46 51°12.218 2°48.062 -999 18 8.8 101570 100
2006-04-25 07:11:50 51°12.211 2°48.041 -999 18 8.8 101570 100
2006-04-25 07:11:55 51°12.204 2°48.014 -999 18 8.8 101570 100
2006-04-25 07:12:00 51°12.196 2°47.987 -999 13 8.8 101580 100
2006-04-25 07:12:06 51°12.188 2°47.955 -999 17 8.8 101580 100
2006-04-25 07:12:10 51°12.182 2°47.933 -999 18 8.8 101570 100
2006-04-25 07:12:15 51°12.174 2°47.906 -999 18 8.8 101570 100
2006-04-25 07:12:20 51°12.167 2°47.879 -999 21 8.8 101570 100
2006-04-25 07:12:23 51°12.162 2°47.863 -999 18 8.8 101570 100
2006-04-25 07:12:31 51°12.15 2°47.82 -999 15 8.8 101580 100
2006-04-25 07:12:36 51°12.142 2°47.794 -999 15 8.8 101580 100
2006-04-25 07:12:40 51°12.135 2°47.773 -999 16 8.8 101570 100
2006-04-25 07:12:44 51°12.129 2°47.751 -999 17 8.8 101570 100
2006-04-25 07:12:51 51°12.119 2°47.714 -999 17 8.8 101580 100
2006-04-25 07:12:56 51°12.112 2°47.686 -999 13 8.8 101580 100
2006-04-25 07:13:00 51°12.106 2°47.665 -999 11 8.8 101580 100
2006-04-25 07:13:06 51°12.098 2°47.632 -999 13 8.8 101580 100
2006-04-25 07:13:10 51°12.092 2°47.61 -999 15 8.8 101580 100
2006-04-25 07:13:15 51°12.085 2°47.583 -999 16 8.8 101580 100
2006-04-25 07:13:20 51°12.078 2°47.556 -999 15 8.8 101580 100
2006-04-25 07:13:26 51°12.07 2°47.523 -999 17 8.8 101580 100
2006-04-25 07:13:30 51°12.065 2°47.501 -999 12 8.8 101580 100
2006-04-25 07:13:35 51°12.057 2°47.474 -999 15 8.8 101580 100
2006-04-25 07:13:40 51°12.05 2°47.447 -999 14 8.8 101570 100
2006-04-25 07:13:46 51°12.042 2°47.414 -999 19 8.8 101570 100
2006-04-25 07:13:50 51°12.036 2°47.393 -999 20 8.8 101570 100
2006-04-25 07:13:56 51°12.027 2°47.36 -999 17 8.8 101570 100
2006-04-25 07:14:00 51°12.021 2°47.339 -999 14 8.8 101580 100
2006-04-25 07:14:06 51°12.013 2°47.306 -999 14 8.8 101580 100
2006-04-25 07:14:10 51°12.007 2°47.284 -999 15 8.8 101570 100
2006-04-25 07:14:15 51°12 2°47.257 -999 12 8.8 101570 100
2006-04-25 07:14:20 51°11.993 2°47.23 -999 12 8.8 101580 100
2006-04-25 07:14:26 51°11.985 2°47.197 -999 15 8.8 101580 100
2006-04-25 07:14:31 51°11.978 2°47.17 -999 11 8.8 101580 100
2006-04-25 07:14:36 51°11.97 2°47.143 -999 14 8.8 101580 100
2006-04-25 07:14:40 51°11.965 2°47.121 -999 14 8.8 101570 100
2006-04-25 07:14:45 51°11.958 2°47.094 -999 18 8.8 101570 100
2006-04-25 07:14:51 51°11.948 2°47.062 -999 16 8.8 101580 100
2006-04-25 07:14:56 51°11.941 2°47.035 -999 17 8.8 101580 100
2006-04-25 07:15:00 51°11.935 2°47.013 -999 16 8.8 101570 100
2006-04-25 07:15:06 51°11.926 2°46.981 -999 16 8.8 101570 100
2006-04-25 07:15:10 51°11.92 2°46.96 -999 17 8.8 101560 100
2006-04-25 07:15:16 51°11.911 2°46.927 -999 13 8.8 101560 100
2006-04-25 07:15:20 51°11.906 2°46.905 -999 16 8.8 101580 100
2006-04-25 07:15:26 51°11.898 2°46.872 -999 14 8.8 101580 100
2006-04-25 07:15:30 51°11.893 2°46.85 -999 8 8.8 101570 100
2006-04-25 07:15:36 51°11.886 2°46.816 -999 14 8.8 101570 100
2006-04-25 07:15:40 51°11.881 2°46.794 -999 10 8.8 101570 100
2006-04-25 07:15:44 51°11.877 2°46.772 -999 10 8.8 101570 100
2006-04-25 07:15:50 51°11.87 2°46.738 -999 8 8.8 101570 100
2006-04-25 07:15:55 51°11.865 2°46.71 -999 8 8.8 101570 100
2006-04-25 07:16:00 51°11.859 2°46.682 -999 10 8.8 101570 100
2006-04-25 07:16:06 51°11.852 2°46.647 -999 7 8.8 101570 100
2006-04-25 07:16:10 51°11.848 2°46.625 -999 7 8.8 101570 100
2006-04-25 07:16:15 51°11.842 2°46.597 -999 7 8.8 101570 100
2006-04-25 07:16:20 51°11.836 2°46.569 -999 7 8.8 101570 100
2006-04-25 07:16:26 51°11.829 2°46.535 -999 7 8.8 101570 100
2006-04-25 07:16:30 51°11.825 2°46.512 -999 11 8.8 101570 100
2006-04-25 07:16:35 51°11.818 2°46.484 -999 7 8.8 101570 100
2006-04-25 07:16:40 51°11.812 2°46.456 -999 13 8.8 101570 100
2006-04-25 07:16:44 51°11.807 2°46.434 -999 9 8.8 101570 100
2006-04-25 07:16:50 51°11.799 2°46.4 -999 12 8.8 101570 100
2006-04-25 07:16:56 51°11.792 2°46.367 -999 12 8.8 101570 100
2006-04-25 07:17:00 51°11.787 2°46.344 -999 10 8.8 101580 100
2006-04-25 07:17:06 51°11.779 2°46.311 -999 12 8.8 101580 100
2006-04-25 07:17:10 51°11.774 2°46.288 -999 8 8.8 101580 100
2006-04-25 07:17:15 51°11.768 2°46.26 -999 8 8.8 101580 100
2006-04-25 07:17:20 51°11.762 2°46.232 -999 9 8.9 101570 100
2006-04-25 07:17:26 51°11.755 2°46.198 -999 6 8.9 101570 100
2006-04-25 07:17:30 51°11.751 2°46.175 -999 8 8.8 101570 100
2006-04-25 07:17:36 51°11.744 2°46.141 -999 11 8.8 101570 100
2006-04-25 07:17:40 51°11.74 2°46.118 -999 11 8.8 101580 100
2006-04-25 07:17:44 51°11.735 2°46.096 -999 12 8.8 101580 100
2006-04-25 07:17:50 51°11.728 2°46.062 -999 13 8.8 101580 100
2006-04-25 07:17:56 51°11.72 2°46.028 -999 13 8.8 101580 100
2006-04-25 07:18:00 51°11.715 2°46.006 -999 17 8.8 101590 100
2006-04-25 07:18:06 51°11.708 2°45.973 -999 21 8.8 101590 100
2006-04-25 07:18:10 51°11.702 2°45.95 -999 9 8.8 101580 100
2006-04-25 07:18:15 51°11.696 2°45.922 -999 16 8.8 101580 100
2006-04-25 07:18:20 51°11.689 2°45.895 -999 14 8.9 101580 100
2006-04-25 07:18:24 51°11.684 2°45.873 -999 15 8.9 101580 100
2006-04-25 07:18:30 51°11.676 2°45.839 -999 14 8.9 101570 100
2006-04-25 07:18:35 51°11.67 2°45.812 -999 11 8.9 101570 100
2006-04-25 07:18:40 51°11.664 2°45.784 -999 14 8.9 101590 100
2006-04-25 07:18:46 51°11.658 2°45.75 -999 11 8.9 101590 100
2006-04-25 07:18:50 51°11.654 2°45.728 -999 10 8.9 101580 100
2006-04-25 07:18:56 51°11.648 2°45.694 -999 13 8.9 101580 100
2006-04-25 07:19:00 51°11.644 2°45.671 -999 11 8.8 101580 100
2006-04-25 07:19:06 51°11.638 2°45.637 -999 13 8.8 101580 100
2006-04-25 07:19:10 51°11.634 2°45.615 -999 11 8.9 101580 100
2006-04-25 07:19:16 51°11.628 2°45.581 -999 10 8.9 101580 100
2006-04-25 07:19:20 51°11.624 2°45.558 -999 13 8.9 101580 100
2006-04-25 07:19:24 51°11.619 2°45.536 -999 15 8.9 101580 100
2006-04-25 07:19:30 51°11.613 2°45.502 -999 13 8.9 101580 100
2006-04-25 07:19:36 51°11.606 2°45.469 -999 13 8.9 101580 100
2006-04-25 07:19:40 51°11.602 2°45.447 -999 9 8.8 101580 100
2006-04-25 07:19:46 51°11.595 2°45.414 -999 8 8.8 101580 100
2006-04-25 07:19:50 51°11.591 2°45.391 -999 10 8.8 101590 100
2006-04-25 07:19:56 51°11.583 2°45.358 -999 12 8.8 101590 100
2006-04-25 07:20:00 51°11.579 2°45.336 -999 14 8.9 101580 100
2006-04-25 07:20:04 51°11.574 2°45.314 -999 11 8.9 101580 100
2006-04-25 07:20:10 51°11.568 2°45.28 -999 9 8.9 101570 100
2006-04-25 07:20:15 51°11.562 2°45.253 -999 10 8.9 101570 100
2006-04-25 07:20:20 51°11.557 2°45.225 -999 11 8.9 101580 100
2006-04-25 07:20:26 51°11.551 2°45.191 -999 9 8.9 101580 100
2006-04-25 07:20:30 51°11.547 2°45.169 -999 10 8.9 101570 100
2006-04-25 07:20:35 51°11.541 2°45.141 -999 12 8.9 101570 100
2006-04-25 07:20:40 51°11.536 2°45.113 -999 7 8.9 101580 100
2006-04-25 07:20:46 51°11.529 2°45.08 -999 10 8.9 101580 100
2006-04-25 07:20:50 51°11.525 2°45.057 -999 10 8.9 101570 100
2006-04-25 07:20:55 51°11.52 2°45.029 -999 8 8.9 101570 100
2006-04-25 07:21:00 51°11.515 2°45.001 -999 9 8.9 101570 100
2006-04-25 07:21:04 51°11.511 2°44.979 -999 10 8.9 101570 100
2006-04-25 07:21:10 51°11.505 2°44.945 -999 9 8.9 101580 100
2006-04-25 07:21:16 51°11.499 2°44.911 -999 8 8.9 101580 100
2006-04-25 07:21:20 51°11.495 2°44.889 -999 11 8.9 101580 100
2006-04-25 07:21:26 51°11.489 2°44.855 -999 12 8.9 101580 100
2006-04-25 07:21:30 51°11.485 2°44.832 -999 8 8.9 101590 100
2006-04-25 07:21:36 51°11.478 2°44.799 -999 10 8.9 101590 100
2006-04-25 07:21:40 51°11.474 2°44.776 -999 7 8.9 101580 100
2006-04-25 07:21:46 51°11.468 2°44.742 -999 9 8.9 101580 100
2006-04-25 07:21:50 51°11.463 2°44.72 -999 10 8.9 101580 100
2006-04-25 07:21:56 51°11.457 2°44.686 -999 9 8.9 101580 100
2006-04-25 07:22:00 51°11.453 2°44.664 -999 6 8.9 101580 100
2006-04-25 07:22:06 51°11.446 2°44.63 -999 6 8.9 101580 100
2006-04-25 07:22:10 51°11.442 2°44.607 -999 6 9 101580 100
2006-04-25 07:22:16 51°11.435 2°44.574 -999 6 9 101580 100
2006-04-25 07:22:20 51°11.431 2°44.551 -999 9 9 101580 100
2006-04-25 07:22:23 51°11.428 2°44.534 -999 7 9 101580 100
2006-04-25 07:22:30 51°11.421 2°44.495 -999 9 9 101570 100
2006-04-25 07:22:36 51°11.415 2°44.461 -999 8 9 101570 100
2006-04-25 07:22:40 51°11.411 2°44.438 -999 5 9 101580 100
2006-04-25 07:22:46 51°11.405 2°44.404 -999 7 9 101580 100
2006-04-25 07:22:50 51°11.401 2°44.382 -999 7 9 101570 100
2006-04-25 07:22:55 51°11.396 2°44.354 -999 4 9 101570 100
2006-04-25 07:23:00 51°11.391 2°44.326 -999 9 9 101590 100
2006-04-25 07:23:06 51°11.385 2°44.292 -999 8 9 101590 100
2006-04-25 07:23:10 51°11.381 2°44.269 -999 10 9 101580 100
2006-04-25 07:23:15 51°11.375 2°44.241 -999 8 9 101580 100
2006-04-25 07:23:20 51°11.37 2°44.213 -999 10 9 101580 100
2006-04-25 07:23:26 51°11.363 2°44.18 -999 10 9 101580 100
2006-04-25 07:23:30 51°11.359 2°44.157 -999 7 8.9 101570 100
2006-04-25 07:23:35 51°11.354 2°44.129 -999 9 8.9 101570 100
2006-04-25 07:23:40 51°11.348 2°44.101 -999 12 8.9 101580 100
2006-04-25 07:23:44 51°11.344 2°44.078 -999 10 8.9 101580 100
2006-04-25 07:23:50 51°11.338 2°44.044 -999 9 9 101570 100
2006-04-25 07:23:56 51°11.332 2°44.01 -999 9 9 101570 100
2006-04-25 07:24:00 51°11.328 2°43.988 -999 11 9 101570 100
2006-04-25 07:24:06 51°11.322 2°43.954 -999 10 9 101570 100
2006-04-25 07:24:10 51°11.317 2°43.931 -999 13 9 101570 100
2006-04-25 07:24:16 51°11.311 2°43.898 -999 10 9 101570 100
2006-04-25 07:24:20 51°11.307 2°43.875 -999 11 9 101560 100
2006-04-25 07:24:23 51°11.304 2°43.858 -999 9 9 101560 100
2006-04-25 07:24:30 51°11.296 2°43.819 -999 13 9 101580 100
2006-04-25 07:24:36 51°11.289 2°43.786 -999 10 9 101580 100
2006-04-25 07:24:40 51°11.284 2°43.764 -999 8 9 101580 100
2006-04-25 07:24:46 51°11.278 2°43.73 -999 11 9 101580 100
2006-04-25 07:24:50 51°11.273 2°43.708 -999 9 9 101570 100
2006-04-25 07:24:55 51°11.268 2°43.68 -999 2 9 101570 100
2006-04-25 07:25:00 51°11.263 2°43.651 -999 8 9 101570 100
2006-04-25 07:25:06 51°11.257 2°43.617 -999 7 9 101570 100
2006-04-25 07:25:10 51°11.253 2°43.595 -999 1 9 101580 100
2006-04-25 07:25:15 51°11.248 2°43.567 -999 4 9 101580 100
2006-04-25 07:25:20 51°11.243 2°43.538 -999 4 9 101580 100
2006-04-25 07:25:23 51°11.24 2°43.521 -999 8 9 101580 100
2006-04-25 07:25:31 51°11.232 2°43.476 -999 6 9 101580 100
2006-04-25 07:25:35 51°11.228 2°43.454 -999 9 9 101580 100
2006-04-25 07:25:40 51°11.223 2°43.425 -999 7 9.1 101570 100
2006-04-25 07:25:44 51°11.219 2°43.403 -999 10 9.1 101570 100
2006-04-25 07:25:50 51°11.213 2°43.369 -999 10 9 101570 100
2006-04-25 07:25:56 51°11.206 2°43.336 -999 10 9 101570 100
2006-04-25 07:26:00 51°11.201 2°43.314 -999 10 9 101570 100
2006-04-25 07:26:06 51°11.195 2°43.28 -999 11 9 101570 100
2006-04-25 07:26:10 51°11.19 2°43.258 -999 9 9.1 101570 100
2006-04-25 07:26:15 51°11.184 2°43.23 -999 5 9.1 101570 100
2006-04-25 07:26:20 51°11.179 2°43.202 -999 7 9.1 101570 100
2006-04-25 07:26:26 51°11.174 2°43.168 -999 11 9.1 101570 100
2006-04-25 07:26:31 51°11.169 2°43.14 -999 8 9.1 101570 100
2006-04-25 07:26:36 51°11.165 2°43.112 -999 9 9.1 101570 100
2006-04-25 07:26:40 51°11.162 2°43.089 -999 8 9.1 101560 100
2006-04-25 07:26:44 51°11.159 2°43.066 -999 6 9.1 101560 100
2006-04-25 07:26:50 51°11.155 2°43.032 -999 5 9.1 101580 100
2006-04-25 07:26:56 51°11.15 2°42.997 -999 3 9.1 101580 100
2006-04-25 07:27:00 51°11.147 2°42.975 -999 1 9.1 101580 100
2006-04-25 07:27:06 51°11.143 2°42.94 -999 6 9.1 101580 100
2006-04-25 07:27:10 51°11.14 2°42.917 -999 3 9.1 101580 100
2006-04-25 07:27:15 51°11.137 2°42.889 -999 3 9.1 101580 100
2006-04-25 07:27:20 51°11.134 2°42.86 -999 359 9.1 101570 100
2006-04-25 07:27:24 51°11.131 2°42.837 -999 4 9.1 101570 100
2006-04-25 07:27:30 51°11.128 2°42.803 -999 359 9.1 101560 100
2006-04-25 07:27:35 51°11.126 2°42.774 -999 359 9.1 101560 100
2006-04-25 07:27:40 51°11.124 2°42.745 -999 3 9.1 101560 100
2006-04-25 07:27:46 51°11.122 2°42.71 -999 4 9.1 101560 100
2006-04-25 07:27:51 51°11.12 2°42.681 -999 2 9.1 101560 100
2006-04-25 07:27:56 51°11.119 2°42.652 -999 359 9.1 101560 100
2006-04-25 07:28:00 51°11.118 2°42.629 -999 359 9.1 101560 100
2006-04-25 07:28:06 51°11.117 2°42.594 -999 357 9.1 101560 100
2006-04-25 07:28:10 51°11.116 2°42.57 -999 356 9.2 101570 100
2006-04-25 07:28:15 51°11.116 2°42.541 -999 354 9.2 101570 100
2006-04-25 07:28:20 51°11.116 2°42.512 -999 355 9.2 101560 100
2006-04-25 07:28:25 51°11.116 2°42.485 -999 357 9.2 101560 100
2006-04-25 07:28:30 51°11.116 2°42.459 -999 354 9.2 101560 100
2006-04-25 07:28:36 51°11.116 2°42.43 -999 359 9.2 101560 100
2006-04-25 07:28:40 51°11.116 2°42.411 -999 356 9.2 101560 100
2006-04-25 07:28:45 51°11.116 2°42.389 -999 356 9.2 101560 100
2006-04-25 07:28:51 51°11.116 2°42.364 -999 355 9.2 101570 100
2006-04-25 07:28:56 51°11.116 2°42.343 -999 355 9.2 101570 100
2006-04-25 07:29:00 51°11.116 2°42.327 -999 352 9.2 101570 100
2006-04-25 07:29:04 51°11.116 2°42.312 -999 357 9.2 101570 100
2006-04-25 07:29:10 51°11.116 2°42.29 -999 354 9.2 101580 100
2006-04-25 07:29:16 51°11.115 2°42.27 -999 359 9.2 101580 100
2006-04-25 07:29:20 51°11.115 2°42.257 -999 358 9.2 101580 100
2006-04-25 07:29:24 51°11.115 2°42.244 -999 357 9.2 101580 100
2006-04-25 07:29:30 51°11.114 2°42.226 -999 359 9.2 101580 100
2006-04-25 07:29:35 51°11.113 2°42.211 -999 356 9.2 101580 100
2006-04-25 07:29:40 51°11.112 2°42.197 -999 356 9.2 101570 100
2006-04-25 07:29:46 51°11.112 2°42.18 -999 359 9.2 101570 100
2006-04-25 07:29:50 51°11.111 2°42.17 -999 351 9.2 101570 100
2006-04-25 07:29:55 51°11.11 2°42.157 -999 355 9.2 101570 100
2006-04-25 07:30:00 51°11.11 2°42.145 -999 352 9.2 101580 100
2006-04-25 07:30:06 51°11.109 2°42.131 -999 352 9.2 101580 100
2006-04-25 07:30:10 51°11.109 2°42.122 -999 350 9.2 101580 100
2006-04-25 07:30:15 51°11.109 2°42.111 -999 348 9.2 101580 100
2006-04-25 07:30:20 51°11.109 2°42.101 -999 348 9.2 101580 100
2006-04-25 07:30:24 51°11.109 2°42.093 -999 349 9.2 101580 100
2006-04-25 07:30:30 51°11.109 2°42.083 -999 345 9.2 101580 100
2006-04-25 07:30:35 51°11.109 2°42.077 -999 337 9.2 101580 100
2006-04-25 07:30:40 51°11.11 2°42.072 -999 329 9.3 101580 100
2006-04-25 07:30:45 51°11.11 2°42.069 -999 331 9.3 101580 100
2006-04-25 07:30:50 51°11.11 2°42.068 -999 335 9.2 101580 100
2006-04-25 07:30:56 51°11.11 2°42.067 -999 332 9.2 101580 100
2006-04-25 07:31:00 51°11.109 2°42.068 -999 336 9.3 101590 100
2006-04-25 07:31:04 51°11.109 2°42.068 -999 333 9.3 101590 100
2006-04-25 07:31:10 51°11.109 2°42.068 -999 323 9.2 101590 100
2006-04-25 07:31:16 51°11.109 2°42.069 -999 322 9.2 101590 100
2006-04-25 07:31:20 51°11.109 2°42.069 -999 321 9.2 101590 100
2006-04-25 07:31:26 51°11.109 2°42.069 -999 317 9.2 101590 100
2006-04-25 07:31:31 51°11.109 2°42.069 -999 42 9.2 101600 100
2006-04-25 07:31:36 51°11.109 2°42.07 -999 227 9.2 101600 100
2006-04-25 07:31:41 51°11.109 2°42.07 -999 313 9.3 101590 100
2006-04-25 07:31:46 51°11.109 2°42.07 -999 313 9.3 101590 100
2006-04-25 07:31:51 51°11.11 2°42.071 -999 310 9.2 101600 100
2006-04-25 07:31:56 51°11.11 2°42.071 -999 309 9.2 101600 100
2006-04-25 07:32:01 51°11.11 2°42.072 -999 307 9.3 101600 100
2006-04-25 07:32:06 51°11.11 2°42.072 -999 304 9.3 101600 100
2006-04-25 07:32:11 51°11.11 2°42.073 -999 303 9.3 101600 100
2006-04-25 07:32:15 51°11.11 2°42.073 -999 305 9.3 101600 100
2006-04-25 07:32:20 51°11.11 2°42.074 -999 300 9.2 101600 100
2006-04-25 07:32:26 51°11.11 2°42.074 -999 301 9.2 101600 100
2006-04-25 07:32:30 51°11.11 2°42.075 -999 301 9.3 101600 100
2006-04-25 07:32:36 51°11.11 2°42.076 -999 310 9.3 101600 100
2006-04-25 07:32:41 51°11.11 2°42.076 -999 311 9.3 101600 100
2006-04-25 07:32:46 51°11.11 2°42.077 -999 305 9.3 101600 100
2006-04-25 07:32:51 51°11.11 2°42.077 -999 309 9.3 101610 100
2006-04-25 07:32:56 51°11.11 2°42.078 -999 302 9.3 101610 100
2006-04-25 07:33:00 51°11.11 2°42.078 -999 296 9.3 101600 100
2006-04-25 07:33:05 51°11.11 2°42.079 -999 298 9.3 101600 100
2006-04-25 07:33:10 51°11.11 2°42.079 -999 295 9.3 101600 100
2006-04-25 07:33:16 51°11.11 2°42.08 -999 295 9.3 101600 100
2006-04-25 07:33:20 51°11.11 2°42.08 -999 293 9.3 101610 100
2006-04-25 07:33:26 51°11.11 2°42.081 -999 299 9.3 101610 100
2006-04-25 07:33:30 51°11.11 2°42.082 -999 295 9.3 101610 100
2006-04-25 07:33:35 51°11.11 2°42.083 -999 297 9.3 101610 100
2006-04-25 07:33:40 51°11.11 2°42.083 -999 291 9.4 101610 100
2006-04-25 07:33:46 51°11.11 2°42.084 -999 291 9.4 101610 100
2006-04-25 07:33:50 51°11.11 2°42.085 -999 285 9.4 101610 100
2006-04-25 07:33:56 51°11.111 2°42.086 -999 286 9.4 101610 100
2006-04-25 07:34:00 51°11.111 2°42.086 -999 283 9.4 101610 100
2006-04-25 07:34:06 51°11.111 2°42.087 -999 281 9.4 101610 100
2006-04-25 07:34:10 51°11.111 2°42.088 -999 283 9.4 101610 100
2006-04-25 07:34:15 51°11.111 2°42.088 -999 279 9.4 101610 100
2006-04-25 07:34:20 51°11.111 2°42.089 -999 280 9.4 101620 100
2006-04-25 07:34:26 51°11.111 2°42.09 -999 280 9.4 101620 100
2006-04-25 07:34:30 51°11.111 2°42.091 -999 280 9.4 101620 100
2006-04-25 07:34:35 51°11.111 2°42.091 -999 277 9.4 101620 100
2006-04-25 07:34:40 51°11.111 2°42.092 -999 279 9.4 101620 100
2006-04-25 07:34:46 51°11.111 2°42.093 -999 277 9.4 101620 100
2006-04-25 07:34:50 51°11.112 2°42.094 -999 276 9.4 101620 100
2006-04-25 07:34:55 51°11.112 2°42.095 -999 269 9.4 101620 100
2006-04-25 07:35:00 51°11.112 2°42.096 -999 271 9.4 101620 100
2006-04-25 07:35:04 51°11.112 2°42.096 -999 274 9.4 101620 100
2006-04-25 07:35:10 51°11.112 2°42.097 -999 274 9.4 101620 100
2006-04-25 07:35:15 51°11.112 2°42.098 -999 268 9.4 101620 100
2006-04-25 07:35:20 51°11.112 2°42.099 -999 271 9.4 101620 100
2006-04-25 07:35:25 51°11.112 2°42.099 -999 271 9.4 101620 100
2006-04-25 07:35:30 51°11.112 2°42.1 -999 261 9.4 101620 100
2006-04-25 07:35:36 51°11.112 2°42.101 -999 267 9.4 101620 100
2006-04-25 07:35:40 51°11.112 2°42.102 -999 269 9.4 101620 100
2006-04-25 07:35:46 51°11.112 2°42.103 -999 265 9.4 101620 100
2006-04-25 07:35:50 51°11.112 2°42.103 -999 264 9.4 101620 100
2006-04-25 07:35:56 51°11.112 2°42.104 -999 265 9.4 101620 100
2006-04-25 07:36:00 51°11.112 2°42.105 -999 262 9.4 101620 100
2006-04-25 07:36:06 51°11.112 2°42.106 -999 262 9.4 101620 100
2006-04-25 07:36:10 51°11.112 2°42.107 -999 261 9.4 101620 100
2006-04-25 07:36:15 51°11.112 2°42.108 -999 262 9.4 101620 100
2006-04-25 07:36:20 51°11.112 2°42.109 -999 260 9.4 101620 100
2006-04-25 07:36:24 51°11.112 2°42.109 -999 262 9.4 101620 100
2006-04-25 07:36:30 51°11.112 2°42.11 -999 261 9.4 101620 100
2006-04-25 07:36:35 51°11.113 2°42.112 -999 256 9.4 101620 100
2006-04-25 07:36:40 51°11.113 2°42.113 -999 258 9.4 101620 100
2006-04-25 07:36:46 51°11.113 2°42.114 -999 258 9.4 101620 100
2006-04-25 07:36:50 51°11.113 2°42.114 -999 259 9.3 101620 100
2006-04-25 07:36:55 51°11.113 2°42.115 -999 258 9.3 101620 100
2006-04-25 07:37:00 51°11.113 2°42.116 -999 258 9.4 101620 100
2006-04-25 07:37:06 51°11.112 2°42.117 -999 258 9.4 101620 100
2006-04-25 07:37:10 51°11.112 2°42.117 -999 254 9.4 101620 100
2006-04-25 07:37:15 51°11.112 2°42.118 -999 250 9.4 101620 100
2006-04-25 07:37:20 51°11.113 2°42.119 -999 254 9.3 101620 100
2006-04-25 07:37:26 51°11.113 2°42.12 -999 255 9.3 101620 100
2006-04-25 07:37:31 51°11.113 2°42.121 -999 253 9.3 101620 100
2006-04-25 07:37:36 51°11.113 2°42.122 -999 254 9.3 101620 100
2006-04-25 07:37:40 51°11.113 2°42.123 -999 255 9.4 101620 100
2006-04-25 07:37:45 51°11.114 2°42.124 -999 256 9.4 101620 100
2006-04-25 07:37:51 51°11.114 2°42.125 -999 256 9.3 101630 100
2006-04-25 07:37:56 51°11.114 2°42.126 -999 257 9.3 101630 100
2006-04-25 07:38:00 51°11.114 2°42.127 -999 259 9.3 101620 100
2006-04-25 07:38:06 51°11.114 2°42.128 -999 257 9.3 101620 100
2006-04-25 07:38:10 51°11.115 2°42.129 -999 257 9.4 101620 100
2006-04-25 07:38:16 51°11.115 2°42.13 -999 260 9.4 101620 100
2006-04-25 07:38:20 51°11.115 2°42.131 -999 259 9.3 101630 100
2006-04-25 07:38:26 51°11.115 2°42.132 -999 263 9.3 101630 100
2006-04-25 07:38:30 51°11.115 2°42.133 -999 260 9.3 101630 100
2006-04-25 07:38:36 51°11.115 2°42.134 -999 260 9.3 101630 100
2006-04-25 07:38:40 51°11.116 2°42.135 -999 259 9.4 101620 100
2006-04-25 07:38:46 51°11.116 2°42.136 -999 257 9.4 101620 100
2006-04-25 07:38:50 51°11.116 2°42.137 -999 249 9.4 101630 100
2006-04-25 07:38:55 51°11.116 2°42.138 -999 259 9.4 101630 100
2006-04-25 07:39:00 51°11.116 2°42.139 -999 253 9.4 101630 100
2006-04-25 07:39:06 51°11.117 2°42.14 -999 257 9.4 101630 100
2006-04-25 07:39:10 51°11.117 2°42.141 -999 261 9.4 101630 100
2006-04-25 07:39:15 51°11.117 2°42.141 -999 257 9.4 101630 100
2006-04-25 07:39:20 51°11.118 2°42.142 -999 262 9.3 101630 100
2006-04-25 07:39:26 51°11.118 2°42.144 -999 260 9.3 101630 100
2006-04-25 07:39:30 51°11.118 2°42.145 -999 259 9.3 101630 100
2006-04-25 07:39:36 51°11.118 2°42.146 -999 266 9.3 101630 100
2006-04-25 07:39:40 51°11.118 2°42.146 -999 264 9.3 101630 100
2006-04-25 07:39:46 51°11.119 2°42.148 -999 265 9.3 101630 100
2006-04-25 07:39:51 51°11.119 2°42.149 -999 266 9.3 101630 100
2006-04-25 07:39:56 51°11.119 2°42.15 -999 259 9.3 101630 100
2006-04-25 07:40:00 51°11.119 2°42.151 -999 263 9.4 101630 100
2006-04-25 07:40:06 51°11.12 2°42.152 -999 263 9.4 101630 100
2006-04-25 07:40:10 51°11.12 2°42.153 -999 270 9.4 101630 100
2006-04-25 07:40:16 51°11.12 2°42.154 -999 262 9.4 101630 100
2006-04-25 07:40:20 51°11.12 2°42.155 -999 266 9.4 101630 100
2006-04-25 07:40:26 51°11.12 2°42.156 -999 261 9.4 101630 100
2006-04-25 07:40:30 51°11.12 2°42.157 -999 261 9.4 101630 100
2006-04-25 07:40:36 51°11.121 2°42.158 -999 267 9.4 101630 100
2006-04-25 07:40:40 51°11.121 2°42.16 -999 272 9.4 101630 100
2006-04-25 07:40:46 51°11.122 2°42.161 -999 264 9.4 101630 100
2006-04-25 07:40:50 51°11.122 2°42.162 -999 270 9.4 101630 100
2006-04-25 07:40:56 51°11.122 2°42.164 -999 265 9.4 101630 100
2006-04-25 07:41:01 51°11.123 2°42.165 -999 268 9.4 101630 100
2006-04-25 07:41:06 51°11.123 2°42.166 -999 264 9.4 101630 100
2006-04-25 07:41:10 51°11.123 2°42.167 -999 265 9.4 101630 100
2006-04-25 07:41:15 51°11.123 2°42.169 -999 268 9.4 101630 100
2006-04-25 07:41:20 51°11.123 2°42.17 -999 264 9.4 101630 100
2006-04-25 07:41:26 51°11.124 2°42.172 -999 265 9.4 101630 100
2006-04-25 07:41:30 51°11.124 2°42.173 -999 265 9.4 101630 100
2006-04-25 07:41:35 51°11.124 2°42.174 -999 266 9.4 101630 100
2006-04-25 07:41:40 51°11.124 2°42.175 -999 262 9.4 101640 100
2006-04-25 07:41:46 51°11.124 2°42.177 -999 261 9.4 101640 100
2006-04-25 07:41:50 51°11.124 2°42.177 -999 268 9.4 101640 100
2006-04-25 07:41:56 51°11.125 2°42.179 -999 267 9.4 101640 100
2006-04-25 07:42:00 51°11.125 2°42.18 -999 260 9.4 101640 100
2006-04-25 07:42:06 51°11.125 2°42.182 -999 255 9.4 101640 100
2006-04-25 07:42:11 51°11.125 2°42.183 -999 268 9.4 101640 100
2006-04-25 07:42:16 51°11.125 2°42.184 -999 265 9.4 101640 100
2006-04-25 07:42:20 51°11.126 2°42.185 -999 273 9.4 101640 100
2006-04-25 07:42:25 51°11.126 2°42.186 -999 273 9.4 101640 100
2006-04-25 07:42:31 51°11.127 2°42.188 -999 270 9.4 101640 100
2006-04-25 07:42:36 51°11.127 2°42.19 -999 274 9.4 101640 100
2006-04-25 07:42:40 51°11.127 2°42.191 -999 270 9.4 101640 100
2006-04-25 07:42:46 51°11.127 2°42.192 -999 269 9.4 101640 100
2006-04-25 07:42:50 51°11.127 2°42.194 -999 272 9.5 101640 100
2006-04-25 07:42:55 51°11.128 2°42.195 -999 270 9.5 101640 100
2006-04-25 07:43:00 51°11.128 2°42.197 -999 270 9.5 101640 100
2006-04-25 07:43:04 51°11.128 2°42.198 -999 272 9.5 101640 100
2006-04-25 07:43:10 51°11.128 2°42.2 -999 273 9.4 101640 100
2006-04-25 07:43:15 51°11.129 2°42.201 -999 270 9.4 101640 100
2006-04-25 07:43:21 51°11.129 2°42.203 -999 262 9.4 101650 100
2006-04-25 07:43:26 51°11.129 2°42.204 -999 273 9.4 101650 100
2006-04-25 07:43:30 51°11.129 2°42.206 -999 274 9.4 101650 100
2006-04-25 07:43:36 51°11.13 2°42.208 -999 271 9.4 101650 100
2006-04-25 07:43:40 51°11.13 2°42.209 -999 266 9.4 101640 100
2006-04-25 07:43:46 51°11.13 2°42.211 -999 264 9.4 101640 100
2006-04-25 07:43:50 51°11.13 2°42.212 -999 272 9.5 101650 100
2006-04-25 07:43:56 51°11.131 2°42.214 -999 272 9.5 101650 100
2006-04-25 07:44:00 51°11.131 2°42.215 -999 265 9.5 101650 100
2006-04-25 07:44:06 51°11.131 2°42.217 -999 266 9.5 101650 100
2006-04-25 07:44:10 51°11.131 2°42.218 -999 267 9.4 101650 100
2006-04-25 07:44:15 51°11.131 2°42.219 -999 263 9.4 101650 100
2006-04-25 07:44:20 51°11.132 2°42.221 -999 264 9.4 101650 100
2006-04-25 07:44:25 51°11.132 2°42.223 -999 265 9.4 101650 100
2006-04-25 07:44:30 51°11.132 2°42.224 -999 267 9.5 101640 100
2006-04-25 07:44:36 51°11.133 2°42.226 -999 265 9.5 101640 100
2006-04-25 07:44:40 51°11.133 2°42.228 -999 265 9.5 101650 100
2006-04-25 07:44:45 51°11.133 2°42.229 -999 268 9.5 101650 100
2006-04-25 07:44:50 51°11.133 2°42.231 -999 265 9.4 101650 100
2006-04-25 07:44:56 51°11.134 2°42.233 -999 263 9.4 101650 100
2006-04-25 07:45:00 51°11.134 2°42.234 -999 262 9.4 101650 100
2006-04-25 07:45:06 51°11.134 2°42.236 -999 268 9.4 101650 100
2006-04-25 07:45:10 51°11.134 2°42.237 -999 271 9.4 101650 100
2006-04-25 07:45:15 51°11.135 2°42.239 -999 265 9.4 101650 100
2006-04-25 07:45:20 51°11.135 2°42.24 -999 269 9.4 101640 100
2006-04-25 07:45:26 51°11.135 2°42.243 -999 263 9.4 101640 100
2006-04-25 07:45:30 51°11.136 2°42.244 -999 263 9.4 101650 100
2006-04-25 07:45:35 51°11.136 2°42.245 -999 267 9.4 101650 100
2006-04-25 07:45:40 51°11.136 2°42.247 -999 266 9.4 101650 100
2006-04-25 07:45:46 51°11.136 2°42.249 -999 264 9.4 101650 100
2006-04-25 07:45:50 51°11.137 2°42.251 -999 265 9.4 101640 100
2006-04-25 07:45:55 51°11.137 2°42.252 -999 257 9.4 101640 100
2006-04-25 07:46:00 51°11.137 2°42.254 -999 256 9.4 101650 100
2006-04-25 07:46:04 51°11.137 2°42.255 -999 264 9.4 101650 100
2006-04-25 07:46:11 51°11.138 2°42.258 -999 256 9.4 101640 100
2006-04-25 07:46:16 51°11.138 2°42.259 -999 260 9.4 101640 100
2006-04-25 07:46:20 51°11.138 2°42.261 -999 264 9.5 101640 100
2006-04-25 07:46:26 51°11.138 2°42.263 -999 265 9.5 101640 100
2006-04-25 07:46:30 51°11.139 2°42.264 -999 262 9.5 101640 100
2006-04-25 07:46:36 51°11.139 2°42.266 -999 263 9.5 101640 100
2006-04-25 07:46:40 51°11.139 2°42.267 -999 263 9.5 101650 100
2006-04-25 07:46:46 51°11.139 2°42.269 -999 259 9.5 101650 100
2006-04-25 07:46:50 51°11.139 2°42.27 -999 264 9.4 101640 100
2006-04-25 07:46:56 51°11.14 2°42.273 -999 260 9.4 101640 100
2006-04-25 07:47:00 51°11.14 2°42.274 -999 260 9.5 101640 100
2006-04-25 07:47:06 51°11.141 2°42.276 -999 260 9.5 101640 100
2006-04-25 07:47:10 51°11.141 2°42.278 -999 265 9.5 101650 100
2006-04-25 07:47:16 51°11.141 2°42.28 -999 264 9.5 101650 100
2006-04-25 07:47:20 51°11.142 2°42.281 -999 270 9.5 101640 100
2006-04-25 07:47:23 51°11.142 2°42.282 -999 264 9.5 101640 100
2006-04-25 07:47:30 51°11.142 2°42.284 -999 271 9.5 101640 100
2006-04-25 07:47:36 51°11.143 2°42.287 -999 273 9.5 101640 100
2006-04-25 07:47:40 51°11.144 2°42.288 -999 273 9.5 101650 100
2006-04-25 07:47:46 51°11.146 2°42.29 -999 273 9.5 101650 100
2006-04-25 07:47:50 51°11.148 2°42.291 -999 273 9.5 101640 100
2006-04-25 07:47:55 51°11.15 2°42.291 -999 286 9.5 101640 100
2006-04-25 07:48:00 51°11.152 2°42.292 -999 290 9.5 101640 100
2006-04-25 07:48:04 51°11.153 2°42.292 -999 292 9.5 101640 100
2006-04-25 07:48:10 51°11.156 2°42.293 -999 293 9.5 101650 100
2006-04-25 07:48:16 51°11.159 2°42.292 -999 296 9.5 101650 100
2006-04-25 07:48:20 51°11.161 2°42.291 -999 299 9.5 101650 100
2006-04-25 07:48:26 51°11.165 2°42.29 -999 302 9.5 101650 100
2006-04-25 07:48:30 51°11.167 2°42.289 -999 310 9.5 101640 100
2006-04-25 07:48:35 51°11.169 2°42.288 -999 314 9.5 101640 100
2006-04-25 07:48:40 51°11.172 2°42.285 -999 227 9.5 101640 100
2006-04-25 07:48:46 51°11.175 2°42.282 -999 317 9.5 101640 100
2006-04-25 07:48:50 51°11.177 2°42.28 -999 321 9.5 101630 100
2006-04-25 07:48:56 51°11.179 2°42.276 -999 326 9.5 101630 100
2006-04-25 07:49:00 51°11.181 2°42.274 -999 328 9.5 101640 100
2006-04-25 07:49:03 51°11.182 2°42.272 -999 334 9.5 101640 100
2006-04-25 07:49:11 51°11.185 2°42.265 -999 338 9.5 101630 100
2006-04-25 07:49:16 51°11.186 2°42.261 -999 343 9.5 101630 100
2006-04-25 07:49:20 51°11.187 2°42.257 -999 347 9.5 101630 100
2006-04-25 07:49:26 51°11.188 2°42.252 -999 357 9.5 101630 100
2006-04-25 07:49:30 51°11.189 2°42.248 -999 354 9.5 101630 100
2006-04-25 07:49:36 51°11.19 2°42.242 -999 359 9.5 101630 100
2006-04-25 07:49:40 51°11.19 2°42.239 -999 359 9.5 101630 100
2006-04-25 07:49:43 51°11.19 2°42.236 -999 6 9.5 101630 100
2006-04-25 07:49:50 51°11.189 2°42.229 -999 11 9.6 101620 100
2006-04-25 07:49:56 51°11.188 2°42.223 -999 24 9.6 101620 100
2006-04-25 07:50:01 51°11.186 2°42.219 -999 22 9.6 101630 100
2006-04-25 07:50:06 51°11.185 2°42.214 -999 25 9.6 101630 100
2006-04-25 07:50:10 51°11.183 2°42.211 -999 29 9.6 101630 100
2006-04-25 07:50:16 51°11.181 2°42.207 -999 40 9.6 101630 100
2006-04-25 07:50:20 51°11.178 2°42.204 -999 44 9.6 101630 100
2006-04-25 07:50:26 51°11.175 2°42.201 -999 44 9.6 101630 100
2006-04-25 07:50:30 51°11.173 2°42.199 -999 51 9.6 101620 100
2006-04-25 07:50:36 51°11.169 2°42.196 -999 52 9.6 101620 100
2006-04-25 07:50:40 51°11.166 2°42.194 -999 54 9.6 101620 100
2006-04-25 07:50:46 51°11.162 2°42.192 -999 44 9.6 101620 100
2006-04-25 07:50:50 51°11.159 2°42.19 -999 63 9.5 101620 100
2006-04-25 07:50:55 51°11.155 2°42.188 -999 56 9.5 101620 100
2006-04-25 07:51:00 51°11.15 2°42.187 -999 59 9.5 101620 100
2006-04-25 07:51:03 51°11.148 2°42.186 -999 53 9.5 101620 100
2006-04-25 07:51:11 51°11.141 2°42.182 -999 50 9.5 101620 100
2006-04-25 07:51:16 51°11.137 2°42.18 -999 50 9.5 101620 100
2006-04-25 07:51:20 51°11.133 2°42.177 -999 52 9.5 101610 100
2006-04-25 07:51:26 51°11.128 2°42.173 -999 39 9.5 101610 100
2006-04-25 07:51:30 51°11.125 2°42.17 -999 43 9.5 101620 100
2006-04-25 07:51:36 51°11.12 2°42.166 -999 42 9.5 101620 100
2006-04-25 07:51:40 51°11.117 2°42.162 -999 46 9.5 101620 100
2006-04-25 07:51:43 51°11.115 2°42.159 -999 41 9.5 101620 100
2006-04-25 07:51:50 51°11.11 2°42.153 -999 34 9.5 101620 100
2006-04-25 07:51:56 51°11.106 2°42.146 -999 36 9.5 101620 100
2006-04-25 07:52:01 51°11.103 2°42.141 -999 29 9.5 101620 100
2006-04-25 07:52:06 51°11.1 2°42.135 -999 24 9.5 101620 100
2006-04-25 07:52:10 51°11.099 2°42.13 -999 25 9.5 101620 100
2006-04-25 07:52:16 51°11.096 2°42.122 -999 21 9.5 101620 100
2006-04-25 07:52:20 51°11.094 2°42.117 -999 17 9.5 101630 100
2006-04-25 07:52:26 51°11.093 2°42.11 -999 19 9.5 101630 100
2006-04-25 07:52:30 51°11.092 2°42.105 -999 14 9.5 101630 100
2006-04-25 07:52:36 51°11.091 2°42.097 -999 17 9.5 101630 100
2006-04-25 07:52:40 51°11.09 2°42.092 -999 11 9.5 101630 100
2006-04-25 07:52:46 51°11.09 2°42.084 -999 8 9.5 101630 100
2006-04-25 07:52:50 51°11.089 2°42.08 -999 4 9.5 101630 100
2006-04-25 07:52:56 51°11.09 2°42.074 -999 1 9.5 101630 100
2006-04-25 07:53:00 51°11.089 2°42.071 -999 357 9.5 101630 100
2006-04-25 07:53:06 51°11.09 2°42.068 -999 352 9.5 101630 100
2006-04-25 07:53:10 51°11.09 2°42.066 -999 349 9.5 101630 100
2006-04-25 07:53:16 51°11.091 2°42.065 -999 348 9.5 101630 100
2006-04-25 07:53:20 51°11.091 2°42.065 -999 339 9.5 101630 100
2006-04-25 07:53:25 51°11.091 2°42.066 -999 333 9.5 101630 100
2006-04-25 07:53:31 51°11.092 2°42.066 -999 326 9.5 101620 100
2006-04-25 07:53:36 51°11.092 2°42.067 -999 325 9.5 101620 100
2006-04-25 07:53:40 51°11.092 2°42.068 -999 323 9.5 101620 100
2006-04-25 07:53:45 51°11.093 2°42.069 -999 316 9.5 101620 100
2006-04-25 07:53:51 51°11.093 2°42.07 -999 315 9.4 101630 100
2006-04-25 07:53:56 51°11.094 2°42.071 -999 312 9.4 101630 100
2006-04-25 07:54:00 51°11.094 2°42.072 -999 306 9.4 101620 100
2006-04-25 07:54:06 51°11.095 2°42.074 -999 302 9.4 101620 100
2006-04-25 07:54:10 51°11.095 2°42.075 -999 304 9.5 101630 100
2006-04-25 07:54:16 51°11.096 2°42.077 -999 296 9.5 101630 100
2006-04-25 07:54:20 51°11.096 2°42.079 -999 296 9.5 101640 100
2006-04-25 07:54:26 51°11.097 2°42.081 -999 288 9.5 101640 100
2006-04-25 07:54:30 51°11.097 2°42.082 -999 292 9.4 101630 100
2006-04-25 07:54:36 51°11.098 2°42.084 -999 293 9.4 101630 100
2006-04-25 07:54:40 51°11.098 2°42.086 -999 278 9.5 101640 100
2006-04-25 07:54:46 51°11.099 2°42.088 -999 278 9.5 101640 100
2006-04-25 07:54:51 51°11.099 2°42.09 -999 280 9.4 101630 100
2006-04-25 07:54:56 51°11.099 2°42.092 -999 279 9.4 101630 100
2006-04-25 07:55:00 51°11.1 2°42.093 -999 276 9.5 101630 100
2006-04-25 07:55:06 51°11.1 2°42.095 -999 272 9.5 101630 100
2006-04-25 07:55:11 51°11.101 2°42.098 -999 270 9.5 101640 100
2006-04-25 07:55:16 51°11.101 2°42.1 -999 274 9.5 101640 100
2006-04-25 07:55:20 51°11.102 2°42.101 -999 264 9.5 101640 100
2006-04-25 07:55:26 51°11.103 2°42.104 -999 267 9.5 101640 100
2006-04-25 07:55:31 51°11.103 2°42.106 -999 266 9.5 101640 100
2006-04-25 07:55:36 51°11.104 2°42.108 -999 263 9.5 101640 100
2006-04-25 07:55:40 51°11.104 2°42.11 -999 259 9.5 101640 100
2006-04-25 07:55:46 51°11.105 2°42.112 -999 262 9.5 101640 100
2006-04-25 07:55:50 51°11.105 2°42.114 -999 263 9.5 101640 100
2006-04-25 07:55:55 51°11.105 2°42.116 -999 260 9.5 101640 100
2006-04-25 07:56:00 51°11.106 2°42.118 -999 265 9.4 101640 100
2006-04-25 07:56:06 51°11.106 2°42.121 -999 263 9.4 101640 100
2006-04-25 07:56:10 51°11.107 2°42.123 -999 266 9.5 101640 100
2006-04-25 07:56:16 51°11.107 2°42.125 -999 267 9.5 101640 100
2006-04-25 07:56:20 51°11.108 2°42.127 -999 261 9.5 101640 100
2006-04-25 07:56:25 51°11.108 2°42.129 -999 261 9.5 101640 100
2006-04-25 07:56:30 51°11.109 2°42.132 -999 264 9.5 101640 100
2006-04-25 07:56:36 51°11.109 2°42.135 -999 263 9.5 101640 100
2006-04-25 07:56:40 51°11.11 2°42.137 -999 264 9.5 101640 100
2006-04-25 07:56:46 51°11.111 2°42.139 -999 260 9.5 101640 100
2006-04-25 07:56:50 51°11.111 2°42.141 -999 263 9.4 101640 100
2006-04-25 07:56:56 51°11.112 2°42.144 -999 264 9.4 101640 100
2006-04-25 07:57:00 51°11.112 2°42.146 -999 266 9.4 101640 100
2006-04-25 07:57:06 51°11.112 2°42.149 -999 262 9.4 101640 100
2006-04-25 07:57:11 51°11.113 2°42.151 -999 264 9.4 101650 100
2006-04-25 07:57:16 51°11.113 2°42.153 -999 259 9.4 101650 100
2006-04-25 07:57:20 51°11.114 2°42.155 -999 261 9.4 101640 100
2006-04-25 07:57:26 51°11.114 2°42.158 -999 261 9.4 101640 100
2006-04-25 07:57:30 51°11.114 2°42.16 -999 261 9.4 101650 100
2006-04-25 07:57:36 51°11.115 2°42.163 -999 264 9.4 101650 100
2006-04-25 07:57:40 51°11.115 2°42.165 -999 262 9.4 101650 100
2006-04-25 07:57:46 51°11.116 2°42.168 -999 260 9.4 101650 100
2006-04-25 07:57:51 51°11.116 2°42.17 -999 257 9.4 101650 100
2006-04-25 07:57:56 51°11.117 2°42.173 -999 262 9.4 101650 100
2006-04-25 07:58:00 51°11.117 2°42.174 -999 260 9.4 101650 100
2006-04-25 07:58:06 51°11.118 2°42.177 -999 259 9.4 101650 100
2006-04-25 07:58:10 51°11.118 2°42.179 -999 256 9.4 101650 100
2006-04-25 07:58:16 51°11.119 2°42.182 -999 259 9.4 101650 100
2006-04-25 07:58:20 51°11.119 2°42.184 -999 256 9.4 101650 100
2006-04-25 07:58:24 51°11.119 2°42.186 -999 263 9.4 101650 100